MAT58 ESSA-EFHK
Flight info
| Callsign | MAT58 |
|---|---|
| Flight time | 0h 48m |
| Altitude | 31000 |
| Route | TOVRI N851 RIKUM DCT RIRIP Y364 LAKUT |
| Aircraft | B738/M-SDE2E3FGHIRWXY/LB1 |
Departure
| Time | 2026-04-22 14:05 |
|---|---|
| Airport | Stockholm-Arlanda Airport (ESSA) |
Arrival
| Time | 2026-04-22 14:53 |
|---|---|
| Airport | Helsinki Vantaa Airport (EFHK) |
| Time | Latitude | Longitude | Altitude | Speed | Heading |
|---|---|---|---|---|---|
| 2026-04-22 13:21 | 59.64726 | 17.92596 | 115 ft | 0 kts | 34° |
| 2026-04-22 13:57 | 59.64715 | 17.92582 | 110 ft | 3 kts | 26° |
| 2026-04-22 13:57 | 59.64697 | 17.92571 | 114 ft | 3 kts | 354° |
| 2026-04-22 13:57 | 59.64682 | 17.92581 | 110 ft | 3 kts | 305° |
| 2026-04-22 13:58 | 59.64678 | 17.92597 | 111 ft | 0 kts | 286° |
| 2026-04-22 14:00 | 59.64678 | 17.92595 | 111 ft | 0 kts | 286° |
| 2026-04-22 14:00 | 59.64679 | 17.92591 | 111 ft | 0 kts | 286° |
| 2026-04-22 14:01 | 59.64679 | 17.92589 | 114 ft | 1 kts | 286° |
| 2026-04-22 14:01 | 59.64684 | 17.92556 | 113 ft | 5 kts | 285° |
| 2026-04-22 14:01 | 59.64697 | 17.92466 | 111 ft | 7 kts | 286° |
| 2026-04-22 14:01 | 59.64711 | 17.92369 | 111 ft | 7 kts | 286° |
| 2026-04-22 14:02 | 59.64724 | 17.92275 | 112 ft | 7 kts | 286° |
| 2026-04-22 14:02 | 59.64738 | 17.92183 | 114 ft | 7 kts | 286° |
| 2026-04-22 14:02 | 59.64739 | 17.92082 | 112 ft | 9 kts | 246° |
| 2026-04-22 14:02 | 59.64682 | 17.92029 | 114 ft | 10 kts | 191° |
| 2026-04-22 14:03 | 59.64617 | 17.92005 | 113 ft | 9 kts | 190° |
| 2026-04-22 14:03 | 59.64548 | 17.91981 | 113 ft | 12 kts | 190° |
| 2026-04-22 14:03 | 59.64435 | 17.91940 | 112 ft | 21 kts | 190° |
| 2026-04-22 14:03 | 59.64280 | 17.91884 | 111 ft | 26 kts | 190° |
| 2026-04-22 14:04 | 59.64079 | 17.91810 | 110 ft | 31 kts | 191° |
| 2026-04-22 14:04 | 59.63868 | 17.91725 | 109 ft | 30 kts | 201° |
| 2026-04-22 14:04 | 59.63734 | 17.91507 | 108 ft | 18 kts | 244° |
| 2026-04-22 14:04 | 59.63791 | 17.91347 | 110 ft | 18 kts | 5° |
| 2026-04-22 14:05 | 59.64034 | 17.91436 | 108 ft | 72 kts | 10° |
| 2026-04-22 14:05 | 59.64792 | 17.91706 | 116 ft | 147 kts | 9° |
| 2026-04-22 14:05 | 59.66959 | 17.92510 | 1933 ft | 155 kts | 6° |
| 2026-04-22 14:06 | 59.68101 | 17.92925 | 2538 ft | 183 kts | 6° |
| 2026-04-22 14:06 | 59.69418 | 17.93397 | 3050 ft | 196 kts | 7° |
| 2026-04-22 14:06 | 59.70753 | 17.93918 | 3767 ft | 193 kts | 7° |
| 2026-04-22 14:06 | 59.72061 | 17.94348 | 4595 ft | 189 kts | 7° |
| 2026-04-22 14:07 | 59.73356 | 17.94811 | 5336 ft | 190 kts | 7° |
| 2026-04-22 14:07 | 59.74626 | 17.95916 | 5655 ft | 220 kts | 36° |
| 2026-04-22 14:07 | 59.75522 | 17.98667 | 5911 ft | 261 kts | 69° |
| 2026-04-22 14:07 | 59.75692 | 18.02369 | 6625 ft | 278 kts | 85° |
| 2026-04-22 14:08 | 59.75578 | 18.06237 | 7399 ft | 284 kts | 87° |
| 2026-04-22 14:08 | 59.75444 | 18.10189 | 8180 ft | 289 kts | 86° |
| 2026-04-22 14:08 | 59.75328 | 18.14200 | 8964 ft | 294 kts | 85° |
| 2026-04-22 14:08 | 59.75247 | 18.18276 | 9750 ft | 297 kts | 82° |
| 2026-04-22 14:09 | 59.75229 | 18.22396 | 10433 ft | 304 kts | 82° |
| 2026-04-22 14:09 | 59.75234 | 18.26755 | 10642 ft | 328 kts | 82° |
| 2026-04-22 14:09 | 59.75240 | 18.31444 | 10835 ft | 352 kts | 83° |
| 2026-04-22 14:09 | 59.75234 | 18.36416 | 11179 ft | 367 kts | 83° |
| 2026-04-22 14:10 | 59.75212 | 18.41523 | 11846 ft | 372 kts | 84° |
| 2026-04-22 14:10 | 59.75182 | 18.46660 | 12662 ft | 372 kts | 84° |
| 2026-04-22 14:10 | 59.75152 | 18.51804 | 13441 ft | 374 kts | 84° |
| 2026-04-22 14:10 | 59.75123 | 18.56991 | 14103 ft | 378 kts | 84° |
| 2026-04-22 14:11 | 59.75094 | 18.62233 | 14705 ft | 382 kts | 85° |
| 2026-04-22 14:11 | 59.75063 | 18.67525 | 15316 ft | 386 kts | 85° |
| 2026-04-22 14:11 | 59.75049 | 18.72866 | 15934 ft | 387 kts | 81° |
| 2026-04-22 14:11 | 59.75603 | 18.78019 | 16487 ft | 380 kts | 63° |
| 2026-04-22 14:12 | 59.76901 | 18.82536 | 17091 ft | 377 kts | 52° |
| 2026-04-22 14:12 | 59.78402 | 18.86826 | 17648 ft | 381 kts | 51° |
| 2026-04-22 14:12 | 59.79967 | 18.91202 | 18192 ft | 386 kts | 51° |
| 2026-04-22 14:12 | 59.81524 | 18.95569 | 18712 ft | 389 kts | 51° |
| 2026-04-22 14:13 | 59.83081 | 18.99986 | 19268 ft | 391 kts | 51° |
| 2026-04-22 14:13 | 59.84633 | 19.04435 | 19803 ft | 393 kts | 51° |
| 2026-04-22 14:13 | 59.86187 | 19.08922 | 20320 ft | 395 kts | 51° |
| 2026-04-22 14:13 | 59.87747 | 19.13448 | 20829 ft | 398 kts | 51° |
| 2026-04-22 14:14 | 59.89293 | 19.17947 | 21314 ft | 400 kts | 51° |
| 2026-04-22 14:14 | 59.90868 | 19.22540 | 21799 ft | 403 kts | 51° |
| 2026-04-22 14:14 | 59.92472 | 19.27220 | 22281 ft | 405 kts | 51° |
| 2026-04-22 14:14 | 59.94066 | 19.31883 | 22748 ft | 408 kts | 51° |
| 2026-04-22 14:15 | 59.95656 | 19.36578 | 23198 ft | 411 kts | 53° |
| 2026-04-22 14:15 | 59.97017 | 19.41660 | 23617 ft | 419 kts | 61° |
| 2026-04-22 14:15 | 59.97977 | 19.47124 | 23981 ft | 427 kts | 70° |
| 2026-04-22 14:15 | 59.98701 | 19.52981 | 24385 ft | 430 kts | 71° |
| 2026-04-22 14:16 | 59.99384 | 19.58803 | 24755 ft | 432 kts | 71° |
| 2026-04-22 14:16 | 60.00063 | 19.64661 | 25103 ft | 434 kts | 71° |
| 2026-04-22 14:16 | 60.00747 | 19.70542 | 25449 ft | 436 kts | 71° |
| 2026-04-22 14:16 | 60.01441 | 19.76447 | 25797 ft | 438 kts | 71° |
| 2026-04-22 14:17 | 60.02143 | 19.82391 | 26133 ft | 439 kts | 71° |
| 2026-04-22 14:17 | 60.02849 | 19.88338 | 26468 ft | 441 kts | 71° |
| 2026-04-22 14:17 | 60.03559 | 19.94328 | 26794 ft | 443 kts | 71° |
| 2026-04-22 14:17 | 60.04262 | 20.00269 | 27096 ft | 445 kts | 71° |
| 2026-04-22 14:18 | 60.04744 | 20.04351 | 27302 ft | 447 kts | 71° |
| 2026-04-22 14:18 | 60.05687 | 20.12377 | 27709 ft | 449 kts | 71° |
| 2026-04-22 14:18 | 60.06168 | 20.16496 | 27947 ft | 449 kts | 71° |
| 2026-04-22 14:18 | 60.06875 | 20.22580 | 28390 ft | 448 kts | 71° |
| 2026-04-22 14:19 | 60.07575 | 20.28635 | 28885 ft | 445 kts | 71° |
| 2026-04-22 14:19 | 60.08268 | 20.34655 | 29398 ft | 443 kts | 71° |
| 2026-04-22 14:19 | 60.08956 | 20.40650 | 29817 ft | 442 kts | 71° |
| 2026-04-22 14:19 | 60.09643 | 20.46654 | 30167 ft | 441 kts | 71° |
| 2026-04-22 14:20 | 60.10999 | 20.58587 | 30950 ft | 437 kts | 70° |
| 2026-04-22 14:20 | 60.12348 | 20.70541 | 30970 ft | 440 kts | 71° |
| 2026-04-22 14:21 | 60.14331 | 20.88356 | 30971 ft | 434 kts | 71° |
| 2026-04-22 14:22 | 60.16285 | 21.06113 | 30962 ft | 435 kts | 71° |
| 2026-04-22 14:23 | 60.18216 | 21.23913 | 30954 ft | 435 kts | 71° |
| 2026-04-22 14:23 | 60.18850 | 21.29821 | 30816 ft | 427 kts | 71° |
| 2026-04-22 14:23 | 60.19473 | 21.35643 | 30179 ft | 426 kts | 71° |
| 2026-04-22 14:23 | 60.20091 | 21.41444 | 29911 ft | 417 kts | 71° |
| 2026-04-22 14:24 | 60.20684 | 21.47075 | 29826 ft | 413 kts | 71° |
| 2026-04-22 14:24 | 60.21294 | 21.52817 | 29541 ft | 426 kts | 71° |
| 2026-04-22 14:24 | 60.21922 | 21.58719 | 29286 ft | 436 kts | 71° |
| 2026-04-22 14:24 | 60.22548 | 21.64689 | 29000 ft | 435 kts | 71° |
| 2026-04-22 14:25 | 60.23159 | 21.70605 | 28719 ft | 429 kts | 71° |
| 2026-04-22 14:25 | 60.23758 | 21.76446 | 28444 ft | 424 kts | 71° |
| 2026-04-22 14:25 | 60.24353 | 21.82251 | 28173 ft | 424 kts | 71° |
| 2026-04-22 14:25 | 60.24949 | 21.88054 | 27907 ft | 423 kts | 71° |
| 2026-04-22 14:26 | 60.25542 | 21.93855 | 27639 ft | 423 kts | 71° |
| 2026-04-22 14:26 | 60.26132 | 21.99652 | 27374 ft | 422 kts | 71° |
| 2026-04-22 14:26 | 60.26719 | 22.05445 | 27109 ft | 421 kts | 71° |
| 2026-04-22 14:26 | 60.27296 | 22.11185 | 26610 ft | 416 kts | 71° |
| 2026-04-22 14:27 | 60.27863 | 22.16864 | 26138 ft | 412 kts | 71° |
| 2026-04-22 14:27 | 60.28424 | 22.22494 | 25662 ft | 408 kts | 71° |
| 2026-04-22 14:27 | 60.28979 | 22.28075 | 25188 ft | 405 kts | 70° |
| 2026-04-22 14:27 | 60.29529 | 22.33625 | 24711 ft | 403 kts | 70° |
| 2026-04-22 14:28 | 60.30073 | 22.39146 | 24225 ft | 401 kts | 70° |
| 2026-04-22 14:28 | 60.30614 | 22.44650 | 23739 ft | 399 kts | 70° |
| 2026-04-22 14:28 | 60.31150 | 22.50132 | 23218 ft | 398 kts | 70° |
| 2026-04-22 14:28 | 60.31682 | 22.55596 | 22699 ft | 395 kts | 70° |
| 2026-04-22 14:29 | 60.32206 | 22.61015 | 22208 ft | 393 kts | 70° |
| 2026-04-22 14:29 | 60.32724 | 22.66406 | 21690 ft | 390 kts | 70° |
| 2026-04-22 14:29 | 60.33244 | 22.71811 | 20980 ft | 393 kts | 70° |
| 2026-04-22 14:29 | 60.33760 | 22.77214 | 20475 ft | 391 kts | 70° |
| 2026-04-22 14:30 | 60.34269 | 22.82586 | 20003 ft | 388 kts | 70° |
| 2026-04-22 14:30 | 60.34771 | 22.87910 | 19546 ft | 385 kts | 70° |
| 2026-04-22 14:30 | 60.35268 | 22.93199 | 19085 ft | 382 kts | 69° |
| 2026-04-22 14:30 | 60.35760 | 22.98443 | 18639 ft | 379 kts | 69° |
| 2026-04-22 14:31 | 60.36248 | 23.03665 | 18188 ft | 377 kts | 69° |
| 2026-04-22 14:31 | 60.36731 | 23.08850 | 17665 ft | 375 kts | 69° |
| 2026-04-22 14:31 | 60.37209 | 23.14008 | 17190 ft | 372 kts | 69° |
| 2026-04-22 14:31 | 60.37680 | 23.19120 | 16743 ft | 369 kts | 69° |
| 2026-04-22 14:32 | 60.38146 | 23.24192 | 16300 ft | 365 kts | 69° |
| 2026-04-22 14:32 | 60.38605 | 23.29213 | 15862 ft | 362 kts | 70° |
| 2026-04-22 14:32 | 60.39060 | 23.34212 | 15424 ft | 360 kts | 70° |
| 2026-04-22 14:32 | 60.39509 | 23.39166 | 15004 ft | 357 kts | 70° |
| 2026-04-22 14:33 | 60.39954 | 23.44095 | 14578 ft | 355 kts | 70° |
| 2026-04-22 14:33 | 60.40396 | 23.49002 | 14152 ft | 353 kts | 70° |
| 2026-04-22 14:33 | 60.40832 | 23.53878 | 13738 ft | 351 kts | 70° |
| 2026-04-22 14:33 | 60.41265 | 23.58732 | 13260 ft | 350 kts | 71° |
| 2026-04-22 14:34 | 60.41695 | 23.63571 | 12815 ft | 348 kts | 71° |
| 2026-04-22 14:34 | 60.42119 | 23.68371 | 12378 ft | 345 kts | 71° |
| 2026-04-22 14:34 | 60.42538 | 23.73135 | 11958 ft | 342 kts | 71° |
| 2026-04-22 14:34 | 60.42953 | 23.77867 | 11546 ft | 340 kts | 71° |
| 2026-04-22 14:35 | 60.43362 | 23.82556 | 11160 ft | 337 kts | 72° |
| 2026-04-22 14:35 | 60.43756 | 23.87140 | 11025 ft | 326 kts | 72° |
| 2026-04-22 14:35 | 60.44073 | 23.91636 | 10868 ft | 319 kts | 75° |
| 2026-04-22 14:35 | 60.44317 | 23.96033 | 10733 ft | 310 kts | 75° |
| 2026-04-22 14:36 | 60.44549 | 24.00302 | 10595 ft | 301 kts | 75° |
| 2026-04-22 14:36 | 60.44781 | 24.04461 | 10442 ft | 294 kts | 74° |
| 2026-04-22 14:36 | 60.45016 | 24.08563 | 10140 ft | 292 kts | 74° |
| 2026-04-22 14:36 | 60.45249 | 24.12628 | 9943 ft | 287 kts | 74° |
| 2026-04-22 14:37 | 60.45471 | 24.16584 | 9820 ft | 279 kts | 74° |
| 2026-04-22 14:37 | 60.45691 | 24.20471 | 9539 ft | 277 kts | 74° |
| 2026-04-22 14:37 | 60.45893 | 24.24343 | 9242 ft | 277 kts | 79° |
| 2026-04-22 14:37 | 60.45784 | 24.28296 | 8973 ft | 283 kts | 89° |
| 2026-04-22 14:38 | 60.45497 | 24.32238 | 8678 ft | 283 kts | 91° |
| 2026-04-22 14:38 | 60.45180 | 24.36166 | 8390 ft | 281 kts | 91° |
| 2026-04-22 14:38 | 60.44868 | 24.40065 | 8112 ft | 280 kts | 91° |
| 2026-04-22 14:38 | 60.44568 | 24.43936 | 7828 ft | 278 kts | 91° |
| 2026-04-22 14:39 | 60.44275 | 24.47801 | 7554 ft | 277 kts | 91° |
| 2026-04-22 14:39 | 60.43988 | 24.51654 | 7275 ft | 276 kts | 91° |
| 2026-04-22 14:39 | 60.43706 | 24.55496 | 6984 ft | 275 kts | 91° |
| 2026-04-22 14:40 | 60.43238 | 24.61900 | 6529 ft | 273 kts | 91° |
| 2026-04-22 14:40 | 60.42871 | 24.66921 | 6171 ft | 272 kts | 92° |
| 2026-04-22 14:40 | 60.42594 | 24.70702 | 5947 ft | 268 kts | 92° |
| 2026-04-22 14:40 | 60.42322 | 24.74381 | 5812 ft | 262 kts | 92° |
| 2026-04-22 14:41 | 60.42053 | 24.78016 | 5568 ft | 260 kts | 92° |
| 2026-04-22 14:41 | 60.41784 | 24.81630 | 5329 ft | 259 kts | 92° |
| 2026-04-22 14:41 | 60.41549 | 24.85233 | 5047 ft | 255 kts | 84° |
| 2026-04-22 14:41 | 60.41930 | 24.88567 | 4811 ft | 238 kts | 55° |
| 2026-04-22 14:42 | 60.42879 | 24.91288 | 4548 ft | 232 kts | 46° |
| 2026-04-22 14:42 | 60.43586 | 24.94313 | 4289 ft | 240 kts | 61° |
| 2026-04-22 14:42 | 60.44523 | 24.96839 | 4034 ft | 215 kts | 27° |
| 2026-04-22 14:42 | 60.45720 | 24.98538 | 3826 ft | 208 kts | 31° |
| 2026-04-22 14:43 | 60.46801 | 25.00443 | 3579 ft | 204 kts | 35° |
| 2026-04-22 14:43 | 60.47804 | 25.02424 | 3355 ft | 199 kts | 37° |
| 2026-04-22 14:43 | 60.48760 | 25.04399 | 3140 ft | 193 kts | 37° |
| 2026-04-22 14:43 | 60.49680 | 25.06325 | 2937 ft | 186 kts | 37° |
| 2026-04-22 14:44 | 60.50552 | 25.08186 | 2755 ft | 178 kts | 38° |
| 2026-04-22 14:44 | 60.51379 | 25.09977 | 2544 ft | 171 kts | 37° |
| 2026-04-22 14:44 | 60.52186 | 25.11738 | 2377 ft | 172 kts | 38° |
| 2026-04-22 14:44 | 60.52998 | 25.13526 | 2298 ft | 173 kts | 38° |
| 2026-04-22 14:45 | 60.53822 | 25.15348 | 2209 ft | 176 kts | 38° |
| 2026-04-22 14:45 | 60.54645 | 25.17177 | 2109 ft | 175 kts | 39° |
| 2026-04-22 14:45 | 60.55455 | 25.18986 | 2006 ft | 171 kts | 39° |
| 2026-04-22 14:45 | 60.56250 | 25.20802 | 1993 ft | 175 kts | 45° |
| 2026-04-22 14:46 | 60.56550 | 25.23280 | 1984 ft | 197 kts | 94° |
| 2026-04-22 14:46 | 60.55827 | 25.25681 | 2002 ft | 208 kts | 140° |
| 2026-04-22 14:46 | 60.54609 | 25.27303 | 1968 ft | 210 kts | 155° |
| 2026-04-22 14:46 | 60.53257 | 25.28286 | 1959 ft | 204 kts | 171° |
| 2026-04-22 14:47 | 60.51866 | 25.28551 | 1958 ft | 201 kts | 189° |
| 2026-04-22 14:47 | 60.50512 | 25.28036 | 1982 ft | 194 kts | 205° |
| 2026-04-22 14:47 | 60.49331 | 25.27034 | 1972 ft | 175 kts | 216° |
| 2026-04-22 14:47 | 60.48314 | 25.25834 | 1995 ft | 169 kts | 220° |
| 2026-04-22 14:48 | 60.47358 | 25.24530 | 2030 ft | 162 kts | 227° |
| 2026-04-22 14:48 | 60.46503 | 25.23109 | 1982 ft | 155 kts | 230° |
| 2026-04-22 14:48 | 60.45678 | 25.21688 | 2003 ft | 158 kts | 232° |
| 2026-04-22 14:48 | 60.44881 | 25.20135 | 1988 ft | 158 kts | 235° |
| 2026-04-22 14:49 | 60.44127 | 25.18553 | 1982 ft | 153 kts | 237° |
| 2026-04-22 14:49 | 60.43403 | 25.16984 | 1992 ft | 152 kts | 237° |
| 2026-04-22 14:49 | 60.42684 | 25.15405 | 1986 ft | 152 kts | 237° |
| 2026-04-22 14:49 | 60.41967 | 25.13838 | 2000 ft | 152 kts | 238° |
| 2026-04-22 14:50 | 60.41246 | 25.12259 | 2009 ft | 154 kts | 238° |
| 2026-04-22 14:50 | 60.40510 | 25.10643 | 1997 ft | 157 kts | 237° |
| 2026-04-22 14:50 | 60.39773 | 25.09027 | 1992 ft | 156 kts | 238° |
| 2026-04-22 14:50 | 60.39037 | 25.07410 | 1906 ft | 156 kts | 238° |
| 2026-04-22 14:51 | 60.38303 | 25.05801 | 1709 ft | 153 kts | 238° |
| 2026-04-22 14:51 | 60.37598 | 25.04253 | 1508 ft | 148 kts | 237° |
| 2026-04-22 14:51 | 60.36907 | 25.02737 | 1326 ft | 146 kts | 237° |
| 2026-04-22 14:51 | 60.36224 | 25.01230 | 1122 ft | 145 kts | 238° |
| 2026-04-22 14:52 | 60.35551 | 24.99688 | 942 ft | 148 kts | 236° |
| 2026-04-22 14:52 | 60.34841 | 24.98182 | 738 ft | 149 kts | 234° |
| 2026-04-22 14:52 | 60.34142 | 24.96628 | 542 ft | 150 kts | 235° |
| 2026-04-22 14:52 | 60.33435 | 24.95097 | 353 ft | 148 kts | 234° |
| 2026-04-22 14:53 | 60.32755 | 24.93602 | 183 ft | 136 kts | 233° |
| 2026-04-22 14:53 | 60.32194 | 24.92365 | 166 ft | 98 kts | 227° |
| 2026-04-22 14:53 | 60.31831 | 24.91566 | 157 ft | 55 kts | 227° |
| 2026-04-22 14:53 | 60.31627 | 24.91117 | 150 ft | 40 kts | 228° |
| 2026-04-22 14:54 | 60.31447 | 24.90721 | 146 ft | 35 kts | 226° |
| 2026-04-22 14:54 | 60.31288 | 24.90527 | 145 ft | 27 kts | 177° |
| 2026-04-22 14:54 | 60.31171 | 24.90732 | 145 ft | 17 kts | 105° |
| 2026-04-22 14:54 | 60.31170 | 24.90744 | 145 ft | 0 kts | 102° |
| 2026-04-22 14:55 | 60.31167 | 24.90790 | 145 ft | 6 kts | 94° |
| 2026-04-22 14:55 | 60.31170 | 24.90852 | 146 ft | 9 kts | 76° |
| 2026-04-22 14:56 | 60.31212 | 24.90999 | 147 ft | 17 kts | 49° |
| 2026-04-22 14:56 | 60.31321 | 24.91241 | 150 ft | 28 kts | 47° |
| 2026-04-22 14:56 | 60.31451 | 24.91527 | 153 ft | 27 kts | 47° |
| 2026-04-22 14:56 | 60.31584 | 24.91818 | 156 ft | 29 kts | 47° |
| 2026-04-22 14:57 | 60.31715 | 24.92105 | 159 ft | 27 kts | 47° |
| 2026-04-22 14:57 | 60.31735 | 24.92357 | 160 ft | 18 kts | 135° |
| 2026-04-22 14:57 | 60.31621 | 24.92569 | 160 ft | 26 kts | 137° |
| 2026-04-22 14:57 | 60.31491 | 24.92807 | 161 ft | 24 kts | 137° |
| 2026-04-22 14:58 | 60.31370 | 24.93030 | 161 ft | 23 kts | 137° |
| 2026-04-22 14:58 | 60.31254 | 24.93244 | 161 ft | 22 kts | 137° |
| 2026-04-22 14:58 | 60.31142 | 24.93454 | 160 ft | 22 kts | 137° |
| 2026-04-22 14:58 | 60.31033 | 24.93655 | 160 ft | 21 kts | 137° |
| 2026-04-22 14:59 | 60.30997 | 24.93897 | 161 ft | 20 kts | 52° |
| 2026-04-22 14:59 | 60.30994 | 24.94083 | 161 ft | 13 kts | 99° |
| 2026-04-22 14:59 | 60.31032 | 24.94235 | 161 ft | 11 kts | 70° |
| 2026-04-22 14:59 | 60.30986 | 24.94345 | 161 ft | 10 kts | 150° |
| 2026-04-22 15:00 | 60.30961 | 24.94373 | 161 ft | 0 kts | 150° |